Saturday, May 26, 2018, 6:15 AM GMT
Back to Local

CYQI, Yarmouth, N. S.

Location: , , Canada Lat: 43.833
Local Time: 6:15 AM GMT ( 6:15 GMT) Lon: -66.083
Time Zone: GMT Elev: 141 ft

Show me the last for .
Show Decoded

2018-05-26 06:00 METAR CYQI 260600Z 26013G21KT 10SM BKN086 OVC230 13/10 A2963 RMK AC6CI2 SLP036
                 DENSITY ALT 300FT =
2018-05-26 05:00 METAR CYQI 260500Z 25015G21KT 10SM SCT090 OVC230 13/10 A2963 RMK AC3CI5 SLP037
                 DENSITY ALT 300FT =
2018-05-26 04:00 METAR CYQI 260400Z 26012KT 12SM SCT090 OVC240 12/09 A2965 RMK AC3CI5 SLP041
                 DENSITY ALT 200FT =
2018-05-26 03:00 METAR CYQI 260300Z 24013KT 10SM SCT080 OVC240 12/09 A2965 RMK AC3CI5 SLP041
                 DENSITY ALT 200FT =
2018-05-26 02:00 METAR CYQI 260200Z 25014G19KT 12SM FEW090 BKN240 12/09 A2966 RMK AC1CI6 SLP046
                 DENSITY ALT 200FT =
2018-05-26 01:00 METAR CYQI 260100Z 24017G23KT 10SM BKN250 13/09 A2965 RMK CI7 SLP044 DENSITY ALT
                 200FT =
2018-05-26 00:00 METAR CYQI 260000Z 24015G23KT 10SM BKN250 13/09 A2965 RMK CI7 HZY SLP041 DENSITY
                 ALT 200FT =
2018-05-25 23:00 METAR CYQI 252300Z 24014G21KT 12SM BKN250 13/09 A2964 RMK CI7 HAZY SLP038
                 DENSITY ALT 300FT =
2018-05-25 22:00 METAR CYQI 252200Z 25017KT 10SM BKN250 14/09 A2963 RMK CI7 HAZY SLP037 DENSITY
                 ALT 400FT =
2018-05-25 21:00 METAR CYQI 252100Z 25016G26KT 10SM BKN250 15/09 A2965 RMK CI7 HAZY SLP041
                 DENSITY ALT 500FT =
2018-05-25 20:00 METAR CYQI 252000Z 24015G21KT 12SM BKN250 14/09 A2965 RMK CI7 HAZY SLP044
                 DENSITY ALT 400FT =
2018-05-25 19:00 METAR CYQI 251900Z 25015G21KT 12SM BKN250 15/10 A2968 RMK CI7 HAZY SLP051
                 DENSITY ALT 500FT =
2018-05-25 18:00 METAR CYQI 251800Z 29012G21KT 250V310 12SM FEW250 15/09 A2970 RMK CI2 SLP059
                 DENSITY ALT 400FT =
2018-05-25 17:00 METAR CYQI 251700Z 26015G27KT 10SM FEW120 15/10 A2970 RMK AC1 HAZY SLP060
                 DENSITY ALT 500FT =
2018-05-25 16:00 METAR CYQI 251600Z 28009G17KT 250V330 10SM BKN120 14/10 A2973 RMK AC7 HAZY
                 SLP071 DENSITY ALT 300FT =
2018-05-25 15:00 METAR CYQI 251500Z 25021G27KT 10SM FEW008 BKN180 12/09 A2973 RMK SF1AC7 SF TR
                 SLP070 =
2018-05-25 14:00 METAR CYQI 251400Z 26015G29KT 10SM FEW008 BKN110 11/08 A2977 RMK SF1AC7 SF TR
                 PRESRR SLP083 =
2018-05-25 13:00 METAR CYQI 251300Z 23017G28KT 10SM FEW008 BKN130 11/08 A2977 RMK SF1AC7 SF TR
                 SLP085 =
2018-05-25 12:00 METAR CYQI 251200Z 23015G25KT 9SM SCT008 BKN110 11/09 A2981 RMK SF3AC4 SLP099 =
2018-05-25 11:26 METAR CYQI 251126Z 22012G21KT 9SM SCT007 OVC100 10/09 A2983 RMK SF3AC5 SLP105 =
2018-05-25 11:00 METAR CYQI 251100Z 22014G19KT 9SM BKN008 OVC100 10/09 A2985 RMK SF5AC3 SLP111 =
2018-05-25 10:00 METAR CYQI 251000Z 22015G25KT 9SM FEW008 SCT140 10/08 A2986 RMK CF1AC4 CF TR
                 SLP115 =
2018-05-25 09:50 METAR CYQI 250950Z 21017G24KT 10SM FEW008 SCT140 09/08 A2987 RMK CF1AC4 CF TR
                 SLP117 =
2018-05-25 09:00 METAR CYQI 250900Z 20014G20KT 15SM FEW150 09/06 A2989 RMK AC2 SLP125 =
2018-05-25 08:00 METAR CYQI 250800Z 21011KT 15SM SCT150 08/06 A2994 RMK AC4 SLP140 =
2018-05-25 07:00 METAR CYQI 250700Z 20010G16KT 15SM OVC170 08/05 A2997 RMK AS8 SLP151 =
2018-05-25 06:49 METAR CYQI 250649Z 20012G18KT 15SM BKN092 OVC170 08/05 A2998 RMK AC6AS2 PRESFR
                 SLP153 =

Support USWX by starting your Amazon purchase here.